sensor_id;sensor_type;location;lat;lon;timestamp;pressure;altitude;pressure_sealevel;temperature;humidity
41306;BME280;27051;50.376;19.152;2023-08-24T00:01:27;98447.75;;;18.73;55.00
41306;BME280;27051;50.376;19.152;2023-08-24T00:03:53;98448.91;;;18.69;54.86
41306;BME280;27051;50.376;19.152;2023-08-24T00:06:20;98451.54;;;18.65;54.95
41306;BME280;27051;50.376;19.152;2023-08-24T00:08:46;98450.84;;;18.62;55.17
41306;BME280;27051;50.376;19.152;2023-08-24T00:11:12;98451.05;;;18.58;55.17
41306;BME280;27051;50.376;19.152;2023-08-24T00:13:39;98451.60;;;18.58;55.26
41306;BME280;27051;50.376;19.152;2023-08-24T00:16:06;98450.82;;;18.58;55.34
41306;BME280;27051;50.376;19.152;2023-08-24T00:18:32;98452.00;;;18.62;55.57
41306;BME280;27051;50.376;19.152;2023-08-24T00:20:58;98449.04;;;18.64;55.38
41306;BME280;27051;50.376;19.152;2023-08-24T00:23:25;98451.06;;;18.61;55.67
41306;BME280;27051;50.376;19.152;2023-08-24T00:25:51;98453.92;;;18.59;55.67
41306;BME280;27051;50.376;19.152;2023-08-24T00:28:18;98454.54;;;18.55;55.67
41306;BME280;27051;50.376;19.152;2023-08-24T00:30:44;98451.48;;;18.48;55.73
41306;BME280;27051;50.376;19.152;2023-08-24T00:33:10;98454.99;;;18.38;55.94
41306;BME280;27051;50.376;19.152;2023-08-24T00:35:37;98454.44;;;18.32;55.96
41306;BME280;27051;50.376;19.152;2023-08-24T00:38:03;98455.64;;;18.24;56.21
41306;BME280;27051;50.376;19.152;2023-08-24T00:40:30;98457.11;;;18.10;56.14
41306;BME280;27051;50.376;19.152;2023-08-24T00:42:56;98451.93;;;18.00;56.26
41306;BME280;27051;50.376;19.152;2023-08-24T00:45:23;98454.44;;;18.02;56.63
41306;BME280;27051;50.376;19.152;2023-08-24T00:47:49;98454.98;;;18.03;56.58
41306;BME280;27051;50.376;19.152;2023-08-24T00:50:16;98453.73;;;18.04;56.59
41306;BME280;27051;50.376;19.152;2023-08-24T00:52:44;98453.83;;;18.04;56.73
41306;BME280;27051;50.376;19.152;2023-08-24T00:55:11;98449.78;;;18.04;56.74
41306;BME280;27051;50.376;19.152;2023-08-24T00:57:37;98449.46;;;18.02;56.87
41306;BME280;27051;50.376;19.152;2023-08-24T01:00:06;98447.95;;;17.95;56.78
41306;BME280;27051;50.376;19.152;2023-08-24T01:02:33;98446.86;;;17.95;57.02
41306;BME280;27051;50.376;19.152;2023-08-24T01:05:00;98446.16;;;17.95;56.97
41306;BME280;27051;50.376;19.152;2023-08-24T01:07:26;98444.46;;;17.86;56.99
41306;BME280;27051;50.376;19.152;2023-08-24T01:09:53;98444.85;;;17.85;57.31
41306;BME280;27051;50.376;19.152;2023-08-24T01:15:09;98449.33;;;17.74;57.33
41306;BME280;27051;50.376;19.152;2023-08-24T01:17:41;98451.96;;;17.75;57.39
41306;BME280;27051;50.376;19.152;2023-08-24T01:20:09;98452.80;;;17.70;57.58
41306;BME280;27051;50.376;19.152;2023-08-24T01:22:51;98450.36;;;17.68;57.50
41306;BME280;27051;50.376;19.152;2023-08-24T01:25:38;98452.19;;;17.60;57.59
41306;BME280;27051;50.376;19.152;2023-08-24T01:28:08;98452.41;;;17.59;57.67
41306;BME280;27051;50.376;19.152;2023-08-24T01:30:36;98448.70;;;17.64;57.82
41306;BME280;27051;50.376;19.152;2023-08-24T01:33:03;98447.58;;;17.59;57.86
41306;BME280;27051;50.376;19.152;2023-08-24T01:35:30;98446.73;;;17.59;57.82
41306;BME280;27051;50.376;19.152;2023-08-24T01:37:58;98441.60;;;17.58;58.03
41306;BME280;27051;50.376;19.152;2023-08-24T01:40:28;98440.48;;;17.52;57.99
41306;BME280;27051;50.376;19.152;2023-08-24T01:43:01;98442.07;;;17.48;58.22
41306;BME280;27051;50.376;19.152;2023-08-24T01:45:30;98441.08;;;17.49;58.27
41306;BME280;27051;50.376;19.152;2023-08-24T01:47:59;98441.39;;;17.50;58.14
41306;BME280;27051;50.376;19.152;2023-08-24T01:50:27;98439.90;;;17.50;58.30
41306;BME280;27051;50.376;19.152;2023-08-24T01:52:54;98439.45;;;17.42;58.10
41306;BME280;27051;50.376;19.152;2023-08-24T01:55:21;98439.27;;;17.38;58.33
41306;BME280;27051;50.376;19.152;2023-08-24T01:57:48;98439.09;;;17.43;58.57
41306;BME280;27051;50.376;19.152;2023-08-24T02:00:15;98436.23;;;17.46;58.46
41306;BME280;27051;50.376;19.152;2023-08-24T02:02:43;98439.77;;;17.32;58.31
41306;BME280;27051;50.376;19.152;2023-08-24T02:05:10;98436.41;;;17.23;58.57
41306;BME280;27051;50.376;19.152;2023-08-24T02:07:38;98438.48;;;17.19;58.50
41306;BME280;27051;50.376;19.152;2023-08-24T02:10:05;98439.90;;;17.22;58.70
41306;BME280;27051;50.376;19.152;2023-08-24T02:12:32;98436.50;;;17.22;58.70
41306;BME280;27051;50.376;19.152;2023-08-24T02:14:58;98437.15;;;17.08;58.58
41306;BME280;27051;50.376;19.152;2023-08-24T02:17:28;98431.54;;;16.98;58.78
41306;BME280;27051;50.376;19.152;2023-08-24T02:19:55;98432.95;;;16.99;59.25
41306;BME280;27051;50.376;19.152;2023-08-24T02:22:21;98430.15;;;17.06;59.28
41306;BME280;27051;50.376;19.152;2023-08-24T02:24:48;98430.02;;;17.09;59.08
41306;BME280;27051;50.376;19.152;2023-08-24T02:27:14;98432.77;;;17.11;59.23
41306;BME280;27051;50.376;19.152;2023-08-24T02:29:41;98429.70;;;17.09;59.02
41306;BME280;27051;50.376;19.152;2023-08-24T02:32:08;98429.04;;;16.96;59.12
41306;BME280;27051;50.376;19.152;2023-08-24T02:34:34;98426.76;;;16.84;59.35
41306;BME280;27051;50.376;19.152;2023-08-24T02:37:00;98426.25;;;16.82;59.30
41306;BME280;27051;50.376;19.152;2023-08-24T02:39:27;98420.88;;;16.74;59.48
41306;BME280;27051;50.376;19.152;2023-08-24T02:41:53;98424.46;;;16.68;59.64
41306;BME280;27051;50.376;19.152;2023-08-24T02:44:20;98421.52;;;16.67;59.67
41306;BME280;27051;50.376;19.152;2023-08-24T02:46:48;98421.83;;;16.61;59.77
41306;BME280;27051;50.376;19.152;2023-08-24T02:49:15;98420.08;;;16.64;60.05
41306;BME280;27051;50.376;19.152;2023-08-24T02:51:41;98419.92;;;16.72;60.05
41306;BME280;27051;50.376;19.152;2023-08-24T02:54:07;98416.36;;;16.72;59.87
41306;BME280;27051;50.376;19.152;2023-08-24T02:56:34;98423.00;;;16.69;59.74
41306;BME280;27051;50.376;19.152;2023-08-24T02:59:00;98421.69;;;16.62;60.06
41306;BME280;27051;50.376;19.152;2023-08-24T03:01:27;98424.56;;;16.64;60.22
41306;BME280;27051;50.376;19.152;2023-08-24T03:03:53;98425.03;;;16.70;60.20
41306;BME280;27051;50.376;19.152;2023-08-24T03:06:20;98423.95;;;16.65;60.03
41306;BME280;27051;50.376;19.152;2023-08-24T03:08:46;98427.04;;;16.63;60.32
41306;BME280;27051;50.376;19.152;2023-08-24T03:11:13;98424.98;;;16.59;60.43
41306;BME280;27051;50.376;19.152;2023-08-24T03:13:39;98424.90;;;16.52;60.46
41306;BME280;27051;50.376;19.152;2023-08-24T03:16:06;98426.79;;;16.48;60.54
41306;BME280;27051;50.376;19.152;2023-08-24T03:18:33;98424.61;;;16.41;60.55
41306;BME280;27051;50.376;19.152;2023-08-24T03:21:00;98423.59;;;16.34;60.67
41306;BME280;27051;50.376;19.152;2023-08-24T03:23:27;98426.80;;;16.31;60.78
41306;BME280;27051;50.376;19.152;2023-08-24T03:25:55;98424.90;;;16.26;60.95
41306;BME280;27051;50.376;19.152;2023-08-24T03:28:21;98427.11;;;16.29;61.16
41306;BME280;27051;50.376;19.152;2023-08-24T03:30:50;98427.11;;;16.36;61.04
41306;BME280;27051;50.376;19.152;2023-08-24T03:33:17;98429.90;;;16.42;60.99
41306;BME280;27051;50.376;19.152;2023-08-24T03:35:43;98428.23;;;16.46;60.99
41306;BME280;27051;50.376;19.152;2023-08-24T03:38:10;98427.36;;;16.43;61.11
41306;BME280;27051;50.376;19.152;2023-08-24T03:40:36;98427.76;;;16.37;61.08
41306;BME280;27051;50.376;19.152;2023-08-24T03:43:03;98428.09;;;16.34;61.36
41306;BME280;27051;50.376;19.152;2023-08-24T03:45:31;98430.96;;;16.34;61.48
41306;BME280;27051;50.376;19.152;2023-08-24T03:47:58;98431.80;;;16.33;61.45
41306;BME280;27051;50.376;19.152;2023-08-24T03:50:24;98430.38;;;16.37;61.46
41306;BME280;27051;50.376;19.152;2023-08-24T03:52:51;98429.31;;;16.38;61.57
41306;BME280;27051;50.376;19.152;2023-08-24T03:55:18;98431.38;;;16.43;61.95
41306;BME280;27051;50.376;19.152;2023-08-24T03:57:44;98430.77;;;16.50;62.13
41306;BME280;27051;50.376;19.152;2023-08-24T04:00:11;98435.47;;;16.55;61.79
41306;BME280;27051;50.376;19.152;2023-08-24T04:02:38;98436.89;;;16.51;61.83
41306;BME280;27051;50.376;19.152;2023-08-24T04:05:05;98437.29;;;16.52;62.02
41306;BME280;27051;50.376;19.152;2023-08-24T04:07:31;98439.75;;;16.57;62.22
41306;BME280;27051;50.376;19.152;2023-08-24T04:09:58;98436.80;;;16.61;62.43
41306;BME280;27051;50.376;19.152;2023-08-24T04:12:24;98433.80;;;16.63;62.36
41306;BME280;27051;50.376;19.152;2023-08-24T04:14:50;98434.95;;;16.64;62.43
41306;BME280;27051;50.376;19.152;2023-08-24T04:17:17;98435.33;;;16.62;62.47
41306;BME280;27051;50.376;19.152;2023-08-24T04:19:43;98435.90;;;16.59;62.44
41306;BME280;27051;50.376;19.152;2023-08-24T04:22:10;98437.21;;;16.58;62.81
41306;BME280;27051;50.376;19.152;2023-08-24T04:24:36;98436.02;;;16.67;62.90
41306;BME280;27051;50.376;19.152;2023-08-24T04:27:03;98437.12;;;16.76;63.04
41306;BME280;27051;50.376;19.152;2023-08-24T04:29:29;98435.66;;;16.84;63.23
41306;BME280;27051;50.376;19.152;2023-08-24T04:31:56;98436.82;;;16.91;63.38
41306;BME280;27051;50.376;19.152;2023-08-24T04:34:22;98433.94;;;16.97;63.33
41306;BME280;27051;50.376;19.152;2023-08-24T04:36:49;98436.80;;;16.96;63.58
41306;BME280;27051;50.376;19.152;2023-08-24T04:39:15;98431.67;;;17.03;63.85
41306;BME280;27051;50.376;19.152;2023-08-24T04:41:42;98430.98;;;17.11;63.56
41306;BME280;27051;50.376;19.152;2023-08-24T04:44:08;98434.20;;;17.18;63.76
41306;BME280;27051;50.376;19.152;2023-08-24T04:46:35;98432.12;;;17.20;63.78
41306;BME280;27051;50.376;19.152;2023-08-24T04:49:01;98432.76;;;17.31;63.93
41306;BME280;27051;50.376;19.152;2023-08-24T04:51:28;98428.92;;;17.36;64.00
41306;BME280;27051;50.376;19.152;2023-08-24T04:53:55;98427.48;;;17.40;64.12
41306;BME280;27051;50.376;19.152;2023-08-24T04:56:21;98428.27;;;17.42;64.30
41306;BME280;27051;50.376;19.152;2023-08-24T04:58:55;98430.48;;;17.45;64.41
41306;BME280;27051;50.376;19.152;2023-08-24T05:01:22;98436.79;;;17.57;64.82
41306;BME280;27051;50.376;19.152;2023-08-24T05:03:48;98435.08;;;17.68;64.69
41306;BME280;27051;50.376;19.152;2023-08-24T05:06:15;98439.00;;;17.74;64.67
41306;BME280;27051;50.376;19.152;2023-08-24T05:08:41;98437.85;;;17.86;64.92
41306;BME280;27051;50.376;19.152;2023-08-24T05:11:18;98442.30;;;18.01;64.86
41306;BME280;27051;50.376;19.152;2023-08-24T05:13:50;98440.36;;;18.14;64.97
41306;BME280;27051;50.376;19.152;2023-08-24T05:16:17;98450.98;;;18.26;64.53
41306;BME280;27051;50.376;19.152;2023-08-24T05:18:43;98447.84;;;18.35;64.15
41306;BME280;27051;50.376;19.152;2023-08-24T05:21:10;98449.50;;;18.40;63.90
41306;BME280;27051;50.376;19.152;2023-08-24T05:23:36;98451.23;;;18.45;63.67
41306;BME280;27051;50.376;19.152;2023-08-24T05:26:03;98451.02;;;18.50;63.54
41306;BME280;27051;50.376;19.152;2023-08-24T05:28:31;98453.82;;;18.54;63.50
41306;BME280;27051;50.376;19.152;2023-08-24T05:30:58;98455.10;;;18.60;63.62
41306;BME280;27051;50.376;19.152;2023-08-24T05:33:25;98455.20;;;18.65;63.13
41306;BME280;27051;50.376;19.152;2023-08-24T05:35:52;98452.34;;;18.70;63.13
41306;BME280;27051;50.376;19.152;2023-08-24T05:38:19;98453.63;;;18.75;62.73
41306;BME280;27051;50.376;19.152;2023-08-24T05:40:49;98457.68;;;18.80;62.70
41306;BME280;27051;50.376;19.152;2023-08-24T05:43:15;98456.23;;;18.90;62.75
41306;BME280;27051;50.376;19.152;2023-08-24T05:45:42;98457.34;;;18.99;62.57
41306;BME280;27051;50.376;19.152;2023-08-24T05:48:08;98454.78;;;19.04;62.58
41306;BME280;27051;50.376;19.152;2023-08-24T05:50:35;98455.17;;;19.07;62.08
41306;BME280;27051;50.376;19.152;2023-08-24T05:53:01;98450.35;;;19.07;61.85
41306;BME280;27051;50.376;19.152;2023-08-24T05:55:28;98452.53;;;19.09;61.91
41306;BME280;27051;50.376;19.152;2023-08-24T05:57:54;98451.21;;;19.12;61.92
41306;BME280;27051;50.376;19.152;2023-08-24T06:00:30;98448.42;;;19.20;61.95
41306;BME280;27051;50.376;19.152;2023-08-24T06:02:56;98447.81;;;19.27;62.06
41306;BME280;27051;50.376;19.152;2023-08-24T06:05:23;98451.63;;;19.33;62.10
41306;BME280;27051;50.376;19.152;2023-08-24T06:07:49;98450.84;;;19.39;61.97
41306;BME280;27051;50.376;19.152;2023-08-24T06:10:16;98451.64;;;19.45;61.89
41306;BME280;27051;50.376;19.152;2023-08-24T06:12:42;98454.66;;;19.56;62.05
41306;BME280;27051;50.376;19.152;2023-08-24T06:15:08;98451.61;;;19.65;62.05
41306;BME280;27051;50.376;19.152;2023-08-24T06:17:35;98453.52;;;19.73;62.14
41306;BME280;27051;50.376;19.152;2023-08-24T06:20:05;98457.48;;;19.81;62.00
41306;BME280;27051;50.376;19.152;2023-08-24T06:22:31;98456.84;;;19.87;62.04
41306;BME280;27051;50.376;19.152;2023-08-24T06:24:58;98460.96;;;19.97;61.90
41306;BME280;27051;50.376;19.152;2023-08-24T06:27:25;98465.70;;;20.06;61.98
41306;BME280;27051;50.376;19.152;2023-08-24T06:29:51;98466.07;;;20.17;61.95
41306;BME280;27051;50.376;19.152;2023-08-24T06:32:18;98469.63;;;20.28;61.90
41306;BME280;27051;50.376;19.152;2023-08-24T06:34:44;98468.65;;;20.40;61.56
41306;BME280;27051;50.376;19.152;2023-08-24T06:37:11;98469.08;;;20.47;61.42
41306;BME280;27051;50.376;19.152;2023-08-24T06:39:37;98467.11;;;20.54;61.47
41306;BME280;27051;50.376;19.152;2023-08-24T06:42:04;98462.80;;;20.64;61.47
41306;BME280;27051;50.376;19.152;2023-08-24T06:44:30;98460.11;;;20.72;61.48
41306;BME280;27051;50.376;19.152;2023-08-24T06:46:56;98453.58;;;20.83;61.41
41306;BME280;27051;50.376;19.152;2023-08-24T06:49:23;98455.55;;;20.93;61.24
41306;BME280;27051;50.376;19.152;2023-08-24T06:51:49;98455.10;;;21.04;61.44
41306;BME280;27051;50.376;19.152;2023-08-24T06:54:16;98461.11;;;21.17;61.41
41306;BME280;27051;50.376;19.152;2023-08-24T06:56:43;98461.32;;;21.31;61.18
41306;BME280;27051;50.376;19.152;2023-08-24T06:59:09;98462.25;;;21.44;61.09
41306;BME280;27051;50.376;19.152;2023-08-24T07:01:35;98462.08;;;21.59;60.84
41306;BME280;27051;50.376;19.152;2023-08-24T07:04:02;98459.56;;;21.69;60.67
41306;BME280;27051;50.376;19.152;2023-08-24T07:06:28;98462.72;;;21.83;60.42
41306;BME280;27051;50.376;19.152;2023-08-24T07:08:58;98461.48;;;21.98;60.44
41306;BME280;27051;50.376;19.152;2023-08-24T07:11:24;98457.59;;;22.10;60.40
41306;BME280;27051;50.376;19.152;2023-08-24T07:13:50;98457.62;;;22.24;60.29
41306;BME280;27051;50.376;19.152;2023-08-24T07:16:17;98458.85;;;22.40;60.03
41306;BME280;27051;50.376;19.152;2023-08-24T07:18:43;98456.37;;;22.58;59.68
41306;BME280;27051;50.376;19.152;2023-08-24T07:21:10;98457.52;;;22.73;59.73
41306;BME280;27051;50.376;19.152;2023-08-24T07:23:36;98457.90;;;22.90;59.42
41306;BME280;27051;50.376;19.152;2023-08-24T07:26:03;98457.26;;;23.05;59.11
41306;BME280;27051;50.376;19.152;2023-08-24T07:28:29;98457.15;;;23.22;58.81
41306;BME280;27051;50.376;19.152;2023-08-24T07:30:56;98460.77;;;23.37;58.52
41306;BME280;27051;50.376;19.152;2023-08-24T07:33:22;98455.48;;;23.54;58.59
41306;BME280;27051;50.376;19.152;2023-08-24T07:35:49;98459.25;;;23.69;58.23
41306;BME280;27051;50.376;19.152;2023-08-24T07:38:15;98453.29;;;23.82;57.30
41306;BME280;27051;50.376;19.152;2023-08-24T07:40:42;98450.73;;;23.95;56.66
41306;BME280;27051;50.376;19.152;2023-08-24T07:43:08;98450.16;;;24.09;56.51
41306;BME280;27051;50.376;19.152;2023-08-24T07:45:34;98452.58;;;24.22;56.39
41306;BME280;27051;50.376;19.152;2023-08-24T07:48:01;98457.32;;;24.33;55.85
41306;BME280;27051;50.376;19.152;2023-08-24T07:50:27;98455.44;;;24.45;55.87
41306;BME280;27051;50.376;19.152;2023-08-24T07:52:54;98455.94;;;24.56;54.73
41306;BME280;27051;50.376;19.152;2023-08-24T07:55:20;98458.65;;;24.66;54.43
41306;BME280;27051;50.376;19.152;2023-08-24T07:57:47;98455.56;;;24.81;54.17
41306;BME280;27051;50.376;19.152;2023-08-24T08:00:13;98454.83;;;24.94;54.06
41306;BME280;27051;50.376;19.152;2023-08-24T08:02:40;98456.11;;;25.09;54.08
41306;BME280;27051;50.376;19.152;2023-08-24T08:05:07;98459.29;;;25.23;53.20
41306;BME280;27051;50.376;19.152;2023-08-24T08:07:34;98460.04;;;25.35;52.47
41306;BME280;27051;50.376;19.152;2023-08-24T08:10:00;98461.16;;;25.50;52.60
41306;BME280;27051;50.376;19.152;2023-08-24T08:12:27;98461.05;;;25.61;51.62
41306;BME280;27051;50.376;19.152;2023-08-24T08:14:53;98460.52;;;25.70;50.90
41306;BME280;27051;50.376;19.152;2023-08-24T08:17:20;98463.09;;;25.80;50.71
41306;BME280;27051;50.376;19.152;2023-08-24T08:19:46;98465.04;;;25.91;50.30
41306;BME280;27051;50.376;19.152;2023-08-24T08:22:13;98464.91;;;26.02;49.93
41306;BME280;27051;50.376;19.152;2023-08-24T08:24:39;98465.86;;;26.11;49.12
41306;BME280;27051;50.376;19.152;2023-08-24T08:27:05;98469.39;;;26.19;49.03
41306;BME280;27051;50.376;19.152;2023-08-24T08:29:32;98464.50;;;26.28;49.00
41306;BME280;27051;50.376;19.152;2023-08-24T08:31:59;98463.50;;;26.39;48.21
41306;BME280;27051;50.376;19.152;2023-08-24T08:34:35;98468.42;;;26.46;47.60
41306;BME280;27051;50.376;19.152;2023-08-24T08:37:01;98466.48;;;26.51;46.89
41306;BME280;27051;50.376;19.152;2023-08-24T08:39:28;98460.56;;;26.58;46.69
41306;BME280;27051;50.376;19.152;2023-08-24T08:41:55;98459.42;;;26.65;46.15
41306;BME280;27051;50.376;19.152;2023-08-24T08:44:22;98457.65;;;26.74;46.26
41306;BME280;27051;50.376;19.152;2023-08-24T08:46:50;98453.64;;;26.86;45.77
41306;BME280;27051;50.376;19.152;2023-08-24T08:49:17;98456.23;;;26.97;45.58
41306;BME280;27051;50.376;19.152;2023-08-24T08:51:45;98452.27;;;27.03;45.18
41306;BME280;27051;50.376;19.152;2023-08-24T08:54:12;98450.06;;;27.11;44.13
41306;BME280;27051;50.376;19.152;2023-08-24T08:56:39;98451.05;;;27.23;44.17
41306;BME280;27051;50.376;19.152;2023-08-24T08:59:08;98453.40;;;27.40;43.64
41306;BME280;27051;50.376;19.152;2023-08-24T09:01:37;98452.71;;;27.52;43.44
41306;BME280;27051;50.376;19.152;2023-08-24T09:04:05;98449.09;;;27.62;42.92
41306;BME280;27051;50.376;19.152;2023-08-24T09:06:33;98452.67;;;27.75;42.39
41306;BME280;27051;50.376;19.152;2023-08-24T09:09:00;98450.80;;;28.07;42.29
41306;BME280;27051;50.376;19.152;2023-08-24T09:11:27;98454.45;;;28.27;41.97
41306;BME280;27051;50.376;19.152;2023-08-24T09:13:54;98452.23;;;28.45;41.89
41306;BME280;27051;50.376;19.152;2023-08-24T09:16:20;98449.07;;;28.75;41.77
41306;BME280;27051;50.376;19.152;2023-08-24T09:18:47;98443.11;;;29.15;41.15
41306;BME280;27051;50.376;19.152;2023-08-24T09:21:15;98447.30;;;29.62;40.69
41306;BME280;27051;50.376;19.152;2023-08-24T09:23:46;98445.58;;;29.86;39.88
41306;BME280;27051;50.376;19.152;2023-08-24T09:26:29;98444.30;;;30.09;39.54
41306;BME280;27051;50.376;19.152;2023-08-24T09:28:56;98438.40;;;30.51;38.57
41306;BME280;27051;50.376;19.152;2023-08-24T09:31:24;98438.05;;;30.94;38.50
41306;BME280;27051;50.376;19.152;2023-08-24T09:34:00;98438.13;;;31.42;38.08
41306;BME280;27051;50.376;19.152;2023-08-24T09:36:31;98442.17;;;31.87;37.42
41306;BME280;27051;50.376;19.152;2023-08-24T09:38:59;98442.91;;;32.31;36.37
41306;BME280;27051;50.376;19.152;2023-08-24T09:41:45;98443.20;;;32.66;35.61
41306;BME280;27051;50.376;19.152;2023-08-24T09:44:12;98436.27;;;33.05;35.12
41306;BME280;27051;50.376;19.152;2023-08-24T09:46:39;98430.58;;;33.50;34.17
41306;BME280;27051;50.376;19.152;2023-08-24T09:49:07;98432.73;;;33.85;33.65
41306;BME280;27051;50.376;19.152;2023-08-24T09:51:35;98432.70;;;34.10;33.05
41306;BME280;27051;50.376;19.152;2023-08-24T09:54:07;98431.40;;;34.47;32.37
41306;BME280;27051;50.376;19.152;2023-08-24T09:56:36;98431.64;;;34.81;32.21
41306;BME280;27051;50.376;19.152;2023-08-24T09:59:14;98428.23;;;35.12;31.47
41306;BME280;27051;50.376;19.152;2023-08-24T10:01:44;98425.40;;;35.45;30.68
41306;BME280;27051;50.376;19.152;2023-08-24T10:04:24;98422.44;;;35.70;30.36
41306;BME280;27051;50.376;19.152;2023-08-24T10:06:59;98418.02;;;35.89;30.21
41306;BME280;27051;50.376;19.152;2023-08-24T10:09:40;98419.54;;;36.24;29.69
41306;BME280;27051;50.376;19.152;2023-08-24T10:12:11;98424.19;;;36.49;28.75
41306;BME280;27051;50.376;19.152;2023-08-24T10:17:16;98423.27;;;37.01;28.10
41306;BME280;27051;50.376;19.152;2023-08-24T10:19:43;98421.70;;;37.24;27.29
41306;BME280;27051;50.376;19.152;2023-08-24T10:22:10;98421.34;;;37.37;26.76
41306;BME280;27051;50.376;19.152;2023-08-24T10:24:43;98415.52;;;37.57;26.83
41306;BME280;27051;50.376;19.152;2023-08-24T10:27:11;98415.59;;;37.86;26.40
41306;BME280;27051;50.376;19.152;2023-08-24T10:29:38;98410.91;;;38.09;25.82
41306;BME280;27051;50.376;19.152;2023-08-24T10:32:04;98409.52;;;38.32;25.52
41306;BME280;27051;50.376;19.152;2023-08-24T10:34:32;98406.92;;;38.46;24.92
41306;BME280;27051;50.376;19.152;2023-08-24T10:37:08;98402.82;;;38.56;24.93
41306;BME280;27051;50.376;19.152;2023-08-24T10:39:34;98405.83;;;38.84;24.67
41306;BME280;27051;50.376;19.152;2023-08-24T10:42:01;98400.64;;;39.12;24.47
41306;BME280;27051;50.376;19.152;2023-08-24T10:44:34;98396.83;;;39.53;24.17
41306;BME280;27051;50.376;19.152;2023-08-24T10:52:34;98400.42;;;40.88;22.88
41306;BME280;27051;50.376;19.152;2023-08-24T10:55:03;98396.91;;;41.13;22.45
41306;BME280;27051;50.376;19.152;2023-08-24T10:57:37;98399.60;;;41.27;22.14
41306;BME280;27051;50.376;19.152;2023-08-24T11:00:07;98393.05;;;41.62;22.06
41306;BME280;27051;50.376;19.152;2023-08-24T11:02:49;98391.52;;;41.76;21.62
41306;BME280;27051;50.376;19.152;2023-08-24T11:05:24;98383.04;;;41.99;21.53
41306;BME280;27051;50.376;19.152;2023-08-24T11:07:58;98375.98;;;42.46;21.04
41306;BME280;27051;50.376;19.152;2023-08-24T11:13:11;98368.44;;;43.36;20.47
41306;BME280;27051;50.376;19.152;2023-08-24T11:15:40;98362.34;;;43.65;20.00
41306;BME280;27051;50.376;19.152;2023-08-24T11:18:27;98356.42;;;43.94;19.85
41306;BME280;27051;50.376;19.152;2023-08-24T11:21:00;98359.64;;;44.32;19.45
41306;BME280;27051;50.376;19.152;2023-08-24T11:23:27;98351.23;;;44.61;19.35
41306;BME280;27051;50.376;19.152;2023-08-24T11:25:56;98347.73;;;44.85;19.06
41306;BME280;27051;50.376;19.152;2023-08-24T11:28:24;98356.38;;;45.20;18.85
41306;BME280;27051;50.376;19.152;2023-08-24T11:30:51;98351.91;;;45.72;18.65
41306;BME280;27051;50.376;19.152;2023-08-24T11:33:32;98355.67;;;46.10;18.37
41306;BME280;27051;50.376;19.152;2023-08-24T11:36:00;98346.60;;;46.38;17.83
41306;BME280;27051;50.376;19.152;2023-08-24T11:38:40;98342.36;;;46.77;17.22
41306;BME280;27051;50.376;19.152;2023-08-24T11:41:14;98343.69;;;46.84;17.28
41306;BME280;27051;50.376;19.152;2023-08-24T11:43:42;98339.52;;;47.28;16.86
41306;BME280;27051;50.376;19.152;2023-08-24T11:46:09;98337.26;;;47.63;16.54
41306;BME280;27051;50.376;19.152;2023-08-24T11:48:37;98333.52;;;47.99;15.93
41306;BME280;27051;50.376;19.152;2023-08-24T11:51:08;98333.64;;;48.39;15.77
41306;BME280;27051;50.376;19.152;2023-08-24T11:53:46;98332.23;;;48.66;15.31
41306;BME280;27051;50.376;19.152;2023-08-24T11:56:13;98326.27;;;48.98;15.19
41306;BME280;27051;50.376;19.152;2023-08-24T11:58:41;98325.89;;;49.39;15.42
41306;BME280;27051;50.376;19.152;2023-08-24T12:01:09;98323.70;;;49.73;15.00
41306;BME280;27051;50.376;19.152;2023-08-24T12:03:36;98322.21;;;50.23;14.68
41306;BME280;27051;50.376;19.152;2023-08-24T12:06:13;98330.34;;;50.76;14.22
41306;BME280;27051;50.376;19.152;2023-08-24T12:08:48;98327.15;;;51.42;13.86
41306;BME280;27051;50.376;19.152;2023-08-24T12:11:21;98320.23;;;51.84;13.26
41306;BME280;27051;50.376;19.152;2023-08-24T12:13:53;98316.61;;;52.02;13.28
41306;BME280;27051;50.376;19.152;2023-08-24T12:16:20;98313.96;;;52.04;12.43
41306;BME280;27051;50.376;19.152;2023-08-24T12:18:56;98319.26;;;52.15;12.77
41306;BME280;27051;50.376;19.152;2023-08-24T12:21:23;98320.66;;;52.58;12.49
41306;BME280;27051;50.376;19.152;2023-08-24T12:26:35;98314.48;;;53.41;12.20
41306;BME280;27051;50.376;19.152;2023-08-24T12:29:07;98308.23;;;53.71;11.74
41306;BME280;27051;50.376;19.152;2023-08-24T12:31:34;98307.86;;;53.86;11.64
41306;BME280;27051;50.376;19.152;2023-08-24T12:34:05;98310.84;;;54.13;11.37
41306;BME280;27051;50.376;19.152;2023-08-24T12:36:33;98308.30;;;54.50;11.10
41306;BME280;27051;50.376;19.152;2023-08-24T12:39:00;98303.95;;;54.61;11.09
41306;BME280;27051;50.376;19.152;2023-08-24T12:41:27;98300.02;;;55.07;11.22
41306;BME280;27051;50.376;19.152;2023-08-24T12:43:53;98301.09;;;55.35;10.80
41306;BME280;27051;50.376;19.152;2023-08-24T12:46:19;98295.56;;;55.53;10.42
41306;BME280;27051;50.376;19.152;2023-08-24T12:48:46;98293.37;;;55.62;10.35
41306;BME280;27051;50.376;19.152;2023-08-24T12:51:13;98290.27;;;55.51;10.23
41306;BME280;27051;50.376;19.152;2023-08-24T12:53:39;98286.33;;;55.49;10.31
41306;BME280;27051;50.376;19.152;2023-08-24T12:56:06;98287.02;;;55.46;10.53
41306;BME280;27051;50.376;19.152;2023-08-24T12:58:32;98287.48;;;55.82;10.25
41306;BME280;27051;50.376;19.152;2023-08-24T13:00:59;98286.62;;;56.00;10.08
41306;BME280;27051;50.376;19.152;2023-08-24T13:03:26;98281.90;;;56.08;10.32
41306;BME280;27051;50.376;19.152;2023-08-24T13:05:53;98279.57;;;56.18;10.01
41306;BME280;27051;50.376;19.152;2023-08-24T13:08:19;98268.95;;;55.76;10.28
41306;BME280;27051;50.376;19.152;2023-08-24T13:10:45;98263.89;;;54.89;10.47